Time;durP1;ratioP1;P1;durP2;ratioP2;P2;SDS_P1;SDS_P2;PMS_P1;PMS_P2;Temp;Humidity;BMP_temperature;BMP_pressure;BME280_temperature;BME280_humidity;BME280_pressure;Samples;Min_cycle;Max_cycle;Signal;HPM_P1;HPM_P2
2023/10/30 00:02:24;;;;;;;81.78;10.50;;;;;;;;;;5054338;28;20119;-91
2023/10/30 00:04:55;;;;;;;33.92;6.90;;;;;;;;;;5046674;28;20028;-91
2023/10/30 00:07:32;;;;;;;23.88;5.65;;;;;;;;;;5031840;28;20119;-91
2023/10/30 00:10:12;;;;;;;15.63;5.40;;;;;;;;;;5024857;28;20040;-92
2023/10/30 00:12:42;;;;;;;22.25;5.03;;;;;;;;;;5060514;28;20025;-91
2023/10/30 00:15:09;;;;;;;36.38;6.18;;;;;;;;;;5043854;28;20126;-90
2023/10/30 00:17:37;;;;;;;155.00;13.73;;;;;;;;;;5027483;28;20099;-91
2023/10/30 00:20:04;;;;;;;30.48;5.78;;;;;;;;;;5031645;28;20479;-91
2023/10/30 00:22:36;;;;;;;28.60;5.93;;;;;;;;;;5033958;28;20543;-91
2023/10/30 00:25:06;;;;;;;81.22;8.82;;;;;;;;;;5042799;28;20060;-91
2023/10/30 00:27:33;;;;;;;46.25;6.55;;;;;;;;;;5029574;28;20456;-91
2023/10/30 00:30:09;;;;;;;61.10;7.65;;;;;;;;;;5047927;28;20123;-92
2023/10/30 00:32:59;;;;;;;185.52;16.38;;;;;;;;;;5027913;28;20051;-92
2023/10/30 00:35:29;;;;;;;270.02;22.27;;;;;;;;;;5034161;28;20395;-91
2023/10/30 00:38:05;;;;;;;27.15;5.68;;;;;;;;;;5028717;28;20479;-91
2023/10/30 00:40:35;;;;;;;29.57;5.93;;;;;;;;;;5028320;28;20678;-91
2023/10/30 00:43:02;;;;;;;75.22;8.70;;;;;;;;;;5037578;28;20040;-91
2023/10/30 00:45:42;;;;;;;97.25;9.48;;;;;;;;;;5037607;28;20029;-90
2023/10/30 00:48:12;;;;;;;39.47;6.75;;;;;;;;;;5045231;28;20136;-91
2023/10/30 00:50:46;;;;;;;50.17;6.93;;;;;;;;;;5044537;28;20131;-91
2023/10/30 00:53:23;;;;;;;16.33;4.80;;;;;;;;;;5021999;28;20051;-91
2023/10/30 00:56:07;;;;;;;20.52;5.93;;;;;;;;;;5036305;28;20069;-91
2023/10/30 00:58:41;;;;;;;28.80;6.63;;;;;;;;;;5037405;28;20400;-91
2023/10/30 01:01:16;;;;;;;40.42;7.30;;;;;;;;;;5025956;28;20115;-90
2023/10/30 01:03:43;;;;;;;60.90;7.63;;;;;;;;;;5033554;28;20033;-91
2023/10/30 01:06:10;;;;;;;42.75;7.07;;;;;;;;;;5024527;28;20124;-91
2023/10/30 01:08:37;;;;;;;146.32;13.73;;;;;;;;;;5036270;28;20463;-91
2023/10/30 01:11:04;;;;;;;47.28;7.68;;;;;;;;;;5059920;28;20460;-91
2023/10/30 01:13:32;;;;;;;41.95;7.00;;;;;;;;;;5044951;28;20036;-91
2023/10/30 01:15:59;;;;;;;17.88;5.53;;;;;;;;;;5046511;28;20089;-91
2023/10/30 01:18:26;;;;;;;72.45;8.57;;;;;;;;;;5044927;28;20043;-91
2023/10/30 01:20:53;;;;;;;65.13;8.65;;;;;;;;;;5060560;28;20424;-90
2023/10/30 01:23:21;;;;;;;32.92;6.03;;;;;;;;;;5034652;28;20136;-90
2023/10/30 01:25:49;;;;;;;70.40;7.82;;;;;;;;;;5044200;28;20047;-90
2023/10/30 01:28:16;;;;;;;36.17;6.97;;;;;;;;;;5043236;28;20554;-90
2023/10/30 01:30:43;;;;;;;26.10;6.18;;;;;;;;;;5042772;28;20031;-91
2023/10/30 01:33:10;;;;;;;25.05;6.10;;;;;;;;;;5042926;28;20480;-91
2023/10/30 01:35:39;;;;;;;214.23;17.85;;;;;;;;;;5042451;28;20048;-92
2023/10/30 01:38:06;;;;;;;22.75;5.40;;;;;;;;;;5047726;28;20098;-91
2023/10/30 01:40:33;;;;;;;21.65;5.97;;;;;;;;;;5029340;28;20064;-91
2023/10/30 01:43:06;;;;;;;39.88;7.25;;;;;;;;;;5062187;28;20107;-91
2023/10/30 01:45:33;;;;;;;75.55;9.23;;;;;;;;;;5043043;28;20037;-91
2023/10/30 01:48:09;;;;;;;73.32;8.95;;;;;;;;;;5035917;28;20041;-91
2023/10/30 01:50:49;;;;;;;96.97;9.80;;;;;;;;;;5034094;28;20053;-91
2023/10/30 01:53:21;;;;;;;16.50;5.05;;;;;;;;;;5040781;28;20041;-90
2023/10/30 01:55:57;;;;;;;25.45;5.70;;;;;;;;;;5043167;28;20048;-91
2023/10/30 01:58:24;;;;;;;77.97;8.32;;;;;;;;;;5025741;28;20551;-90
2023/10/30 02:03:36;;;;;;;33.55;5.93;;;;;;;;;;5023835;28;20045;-62
2023/10/30 02:06:03;;;;;;;30.05;6.10;;;;;;;;;;5040678;28;20406;-62
2023/10/30 02:08:30;;;;;;;51.78;7.03;;;;;;;;;;5021751;28;20048;-60
2023/10/30 02:10:56;;;;;;;35.50;5.93;;;;;;;;;;5024958;28;20115;-61
2023/10/30 02:13:23;;;;;;;35.95;6.22;;;;;;;;;;5020659;28;20049;-62
2023/10/30 02:15:50;;;;;;;31.05;6.38;;;;;;;;;;5024380;28;20041;-61
2023/10/30 02:18:16;;;;;;;26.48;5.70;;;;;;;;;;5023687;28;20045;-61
2023/10/30 02:20:43;;;;;;;36.97;6.18;;;;;;;;;;5033894;28;20056;-62
2023/10/30 02:23:10;;;;;;;16.23;5.25;;;;;;;;;;5041067;28;20069;-61
2023/10/30 02:25:37;;;;;;;27.98;6.82;;;;;;;;;;5021975;28;20038;-61
2023/10/30 02:28:03;;;;;;;26.30;5.80;;;;;;;;;;5033818;28;20049;-61
2023/10/30 02:30:30;;;;;;;25.80;6.53;;;;;;;;;;5035573;28;20042;-61
2023/10/30 02:32:57;;;;;;;39.05;6.68;;;;;;;;;;5023040;28;20088;-62
2023/10/30 02:35:24;;;;;;;39.38;6.05;;;;;;;;;;5020413;28;20046;-62
2023/10/30 02:37:51;;;;;;;23.80;6.20;;;;;;;;;;5024951;28;20045;-61
2023/10/30 02:40:18;;;;;;;20.08;5.43;;;;;;;;;;5020236;28;20430;-61
2023/10/30 02:42:44;;;;;;;23.30;5.50;;;;;;;;;;5023748;28;20042;-61
2023/10/30 02:45:11;;;;;;;30.88;6.22;;;;;;;;;;5036736;28;20049;-61
2023/10/30 02:47:38;;;;;;;70.80;8.80;;;;;;;;;;5020846;28;20418;-61
2023/10/30 02:50:05;;;;;;;25.92;5.72;;;;;;;;;;5019220;28;20525;-63
2023/10/30 02:52:32;;;;;;;24.52;5.97;;;;;;;;;;5022217;28;20478;-61
2023/10/30 02:54:58;;;;;;;25.95;5.20;;;;;;;;;;5022975;28;20045;-62
2023/10/30 02:57:26;;;;;;;38.15;5.97;;;;;;;;;;5038082;28;20041;-62
2023/10/30 02:59:52;;;;;;;34.08;5.75;;;;;;;;;;5029491;28;20137;-61
2023/10/30 03:02:19;;;;;;;27.15;6.70;;;;;;;;;;5025884;28;20475;-62
2023/10/30 03:04:46;;;;;;;32.22;5.38;;;;;;;;;;5025082;28;20050;-61
2023/10/30 03:07:15;;;;;;;46.97;7.25;;;;;;;;;;5040665;28;20583;-61
2023/10/30 03:09:42;;;;;;;27.95;5.53;;;;;;;;;;5041619;28;20041;-63
2023/10/30 03:12:09;;;;;;;50.03;7.03;;;;;;;;;;5038257;28;20045;-61
2023/10/30 03:14:35;;;;;;;57.20;7.43;;;;;;;;;;5021792;28;20050;-62
2023/10/30 03:17:02;;;;;;;24.02;5.13;;;;;;;;;;5040974;28;20553;-61
2023/10/30 03:19:30;;;;;;;41.03;6.30;;;;;;;;;;5022557;28;20045;-61
2023/10/30 03:21:56;;;;;;;24.70;5.57;;;;;;;;;;5021632;28;20442;-61
2023/10/30 03:24:23;;;;;;;24.75;5.43;;;;;;;;;;5021198;28;20451;-61
2023/10/30 03:26:51;;;;;;;43.63;6.22;;;;;;;;;;5037475;28;20116;-61
2023/10/30 03:29:17;;;;;;;33.60;6.43;;;;;;;;;;5021075;28;20050;-62
2023/10/30 03:31:44;;;;;;;33.75;5.88;;;;;;;;;;5019801;28;20436;-62
2023/10/30 03:34:11;;;;;;;21.98;5.35;;;;;;;;;;5022866;28;20045;-61
2023/10/30 03:36:37;;;;;;;31.42;5.78;;;;;;;;;;5022481;28;20099;-61
2023/10/30 03:39:04;;;;;;;32.22;6.10;;;;;;;;;;5021927;28;20471;-61
2023/10/30 03:41:31;;;;;;;62.88;7.90;;;;;;;;;;5021373;28;20045;-61
2023/10/30 03:43:58;;;;;;;23.95;4.88;;;;;;;;;;5020757;28;20042;-62
2023/10/30 03:46:24;;;;;;;25.48;5.05;;;;;;;;;;5022184;28;20046;-62
2023/10/30 03:48:51;;;;;;;21.15;5.25;;;;;;;;;;5019814;28;20045;-61
2023/10/30 03:51:18;;;;;;;26.95;5.43;;;;;;;;;;5039396;28;20510;-61
2023/10/30 03:53:44;;;;;;;50.72;6.78;;;;;;;;;;5021336;28;21006;-61
2023/10/30 03:56:11;;;;;;;21.88;5.28;;;;;;;;;;5024334;28;20053;-61
2023/10/30 03:58:38;;;;;;;15.38;4.53;;;;;;;;;;5023727;28;20041;-61
2023/10/30 04:01:08;;;;;;;31.30;5.72;;;;;;;;;;5020493;28;20053;-61
2023/10/30 04:03:35;;;;;;;43.80;6.10;;;;;;;;;;5039351;28;20517;-63
2023/10/30 04:06:02;;;;;;;35.90;5.93;;;;;;;;;;5042359;28;20095;-61
2023/10/30 04:08:29;;;;;;;64.75;8.80;;;;;;;;;;5019648;28;20041;-62
2023/10/30 04:10:56;;;;;;;41.70;6.40;;;;;;;;;;5037642;28;20117;-60
2023/10/30 04:13:23;;;;;;;23.55;5.03;;;;;;;;;;5024440;28;20050;-61
2023/10/30 04:15:49;;;;;;;19.77;5.05;;;;;;;;;;5028664;28;20426;-61
2023/10/30 04:18:16;;;;;;;29.95;5.95;;;;;;;;;;5040003;28;20059;-59
2023/10/30 04:20:43;;;;;;;87.72;8.88;;;;;;;;;;5024442;28;20046;-59
2023/10/30 04:23:10;;;;;;;20.25;4.93;;;;;;;;;;5039401;28;20064;-60
2023/10/30 04:25:37;;;;;;;22.13;5.25;;;;;;;;;;5025291;28;20053;-60
2023/10/30 04:28:04;;;;;;;29.48;5.88;;;;;;;;;;5026915;28;20046;-60
2023/10/30 04:30:30;;;;;;;15.23;5.35;;;;;;;;;;5026361;28;20486;-59
2023/10/30 04:32:57;;;;;;;46.30;6.90;;;;;;;;;;5025958;28;20578;-61
2023/10/30 04:35:24;;;;;;;31.02;5.80;;;;;;;;;;5028889;28;20038;-61
2023/10/30 04:37:51;;;;;;;31.77;5.78;;;;;;;;;;5027965;28;20586;-60
2023/10/30 04:40:17;;;;;;;27.80;6.60;;;;;;;;;;5041023;28;20133;-60
2023/10/30 04:42:44;;;;;;;30.10;5.55;;;;;;;;;;5025105;28;20061;-63
2023/10/30 04:45:11;;;;;;;27.70;5.55;;;;;;;;;;5025496;28;20050;-59
2023/10/30 04:47:37;;;;;;;59.42;7.35;;;;;;;;;;5041466;28;20053;-60
2023/10/30 04:50:04;;;;;;;35.67;6.30;;;;;;;;;;5021570;28;20053;-61
2023/10/30 04:52:31;;;;;;;23.85;5.78;;;;;;;;;;5007146;28;20417;-59
2023/10/30 04:54:57;;;;;;;27.45;6.05;;;;;;;;;;5027600;28;20041;-60
2023/10/30 04:57:24;;;;;;;38.05;6.65;;;;;;;;;;5024604;28;20042;-61
2023/10/30 04:59:51;;;;;;;43.17;7.47;;;;;;;;;;5021457;28;20104;-60
2023/10/30 05:02:17;;;;;;;50.13;7.10;;;;;;;;;;5015245;28;20065;-59
2023/10/30 05:04:44;;;;;;;30.05;6.50;;;;;;;;;;5040275;28;20046;-59
2023/10/30 05:07:11;;;;;;;43.28;7.57;;;;;;;;;;5014794;28;20050;-59
2023/10/30 05:09:37;;;;;;;35.53;7.38;;;;;;;;;;5024272;28;20081;-57
2023/10/30 05:12:05;;;;;;;46.78;8.00;;;;;;;;;;5025165;28;20044;-59
2023/10/30 05:14:31;;;;;;;67.75;9.60;;;;;;;;;;5004238;28;20434;-60
2023/10/30 05:16:58;;;;;;;40.53;7.45;;;;;;;;;;5026145;28;20120;-60
2023/10/30 05:19:25;;;;;;;49.60;8.05;;;;;;;;;;5023436;28;20116;-60
2023/10/30 05:21:52;;;;;;;40.08;8.93;;;;;;;;;;5024542;28;20048;-60
2023/10/30 05:24:18;;;;;;;32.70;8.70;;;;;;;;;;5027074;28;20498;-62
2023/10/30 05:26:45;;;;;;;85.28;10.98;;;;;;;;;;5031344;28;20120;-61
2023/10/30 05:29:12;;;;;;;51.05;9.07;;;;;;;;;;5030390;28;20092;-60
2023/10/30 05:31:39;;;;;;;28.73;7.80;;;;;;;;;;5030289;28;20095;-59
2023/10/30 05:34:06;;;;;;;41.83;7.82;;;;;;;;;;5025316;28;20522;-61
2023/10/30 05:36:32;;;;;;;51.72;10.07;;;;;;;;;;5026665;28;20033;-59
2023/10/30 05:38:59;;;;;;;45.00;7.90;;;;;;;;;;5028322;28;20107;-60
2023/10/30 05:41:26;;;;;;;28.45;6.32;;;;;;;;;;5033217;28;20660;-60
2023/10/30 05:43:53;;;;;;;35.28;7.55;;;;;;;;;;5032068;28;20076;-60
2023/10/30 05:46:19;;;;;;;32.90;7.07;;;;;;;;;;5029302;28;20075;-60
2023/10/30 05:48:46;;;;;;;43.28;8.02;;;;;;;;;;5027768;28;20569;-59
2023/10/30 05:51:12;;;;;;;43.78;8.38;;;;;;;;;;5026264;28;20069;-59
2023/10/30 05:53:39;;;;;;;70.28;9.18;;;;;;;;;;5022677;28;20070;-60
2023/10/30 05:56:06;;;;;;;31.17;8.45;;;;;;;;;;5023612;28;20045;-62
2023/10/30 05:58:33;;;;;;;30.75;7.63;;;;;;;;;;5024108;28;20450;-60
2023/10/30 06:01:00;;;;;;;28.25;7.18;;;;;;;;;;5029016;28;20052;-60
2023/10/30 06:03:27;;;;;;;31.13;7.32;;;;;;;;;;5045866;28;20084;-61
2023/10/30 06:05:53;;;;;;;33.17;7.28;;;;;;;;;;5030881;28;20746;-61
2023/10/30 06:08:23;;;;;;;30.90;7.32;;;;;;;;;;5025136;28;20077;-57
2023/10/30 06:10:50;;;;;;;38.03;7.60;;;;;;;;;;5035797;28;20502;-60
2023/10/30 06:13:18;;;;;;;33.90;6.75;;;;;;;;;;5027495;28;20053;-61
2023/10/30 06:15:45;;;;;;;47.17;7.53;;;;;;;;;;5027616;28;20042;-57
2023/10/30 06:18:12;;;;;;;38.47;7.93;;;;;;;;;;5022562;28;20049;-57
2023/10/30 06:20:39;;;;;;;70.40;9.75;;;;;;;;;;5021979;28;20048;-58
2023/10/30 06:23:05;;;;;;;26.02;7.03;;;;;;;;;;5035787;28;20048;-57
2023/10/30 06:25:32;;;;;;;46.95;8.02;;;;;;;;;;5038395;28;20053;-58
2023/10/30 06:27:59;;;;;;;29.17;7.72;;;;;;;;;;5018971;28;20046;-54
2023/10/30 06:30:25;;;;;;;46.00;9.20;;;;;;;;;;5039437;28;20096;-58
2023/10/30 06:32:52;;;;;;;49.33;9.55;;;;;;;;;;5029204;28;20037;-58
2023/10/30 06:35:19;;;;;;;31.23;9.18;;;;;;;;;;5022521;28;20509;-56
2023/10/30 06:37:46;;;;;;;32.58;8.98;;;;;;;;;;5040241;28;20041;-56
2023/10/30 06:40:13;;;;;;;42.92;9.30;;;;;;;;;;5026897;28;20049;-59
2023/10/30 06:42:39;;;;;;;36.03;10.32;;;;;;;;;;5029485;28;20509;-57
2023/10/30 06:45:06;;;;;;;55.47;10.35;;;;;;;;;;5028834;28;20053;-57
2023/10/30 06:47:33;;;;;;;67.90;11.43;;;;;;;;;;5046008;28;20048;-59
2023/10/30 06:50:00;;;;;;;50.45;9.85;;;;;;;;;;5029500;28;20426;-59
2023/10/30 06:52:26;;;;;;;58.90;10.52;;;;;;;;;;5044565;28;20075;-59
2023/10/30 06:54:53;;;;;;;37.30;7.28;;;;;;;;;;5043107;28;20034;-55
2023/10/30 06:57:20;;;;;;;48.55;8.18;;;;;;;;;;5025867;28;20465;-57
2023/10/30 06:59:49;;;;;;;65.63;9.02;;;;;;;;;;5021548;28;20049;-57
2023/10/30 07:02:15;;;;;;;30.10;6.47;;;;;;;;;;5026028;28;20137;-58
2023/10/30 07:04:42;;;;;;;31.25;6.07;;;;;;;;;;5016642;28;20060;-59
2023/10/30 07:07:09;;;;;;;32.33;6.75;;;;;;;;;;5019339;28;20070;-56
2023/10/30 07:09:36;;;;;;;36.90;6.45;;;;;;;;;;5021279;28;20042;-56
2023/10/30 07:12:03;;;;;;;47.97;5.93;;;;;;;;;;5021587;28;20100;-56
2023/10/30 07:14:29;;;;;;;20.70;5.65;;;;;;;;;;5022858;28;20054;-56
2023/10/30 07:16:56;;;;;;;36.00;5.65;;;;;;;;;;5023723;28;20068;-57
2023/10/30 07:19:30;;;;;;;35.88;5.85;;;;;;;;;;5021851;28;20038;-56
2023/10/30 07:21:57;;;;;;;25.95;5.80;;;;;;;;;;5036961;28;20041;-56
2023/10/30 07:24:23;;;;;;;31.52;5.53;;;;;;;;;;5023552;28;20485;-58
2023/10/30 07:26:50;;;;;;;64.93;8.48;;;;;;;;;;5033127;28;20139;-59
2023/10/30 07:29:17;;;;;;;40.60;7.35;;;;;;;;;;5019911;28;20458;-57
2023/10/30 07:31:43;;;;;;;39.35;6.35;;;;;;;;;;5023954;28;20116;-57
2023/10/30 07:34:10;;;;;;;42.75;7.50;;;;;;;;;;5023462;28;20053;-57
2023/10/30 07:36:37;;;;;;;41.85;7.00;;;;;;;;;;5022350;28;20449;-56
2023/10/30 07:39:04;;;;;;;32.85;6.82;;;;;;;;;;5024607;28;20042;-55
2023/10/30 07:41:33;;;;;;;66.47;7.93;;;;;;;;;;5039841;28;20042;-56
2023/10/30 07:44:01;;;;;;;33.38;6.43;;;;;;;;;;5026414;28;20038;-57
2023/10/30 07:46:27;;;;;;;40.95;6.95;;;;;;;;;;5025485;28;20409;-59
2023/10/30 07:48:54;;;;;;;45.95;7.38;;;;;;;;;;5025878;28;20116;-57
2023/10/30 07:51:21;;;;;;;36.40;7.72;;;;;;;;;;5024917;28;20103;-57
2023/10/30 07:53:47;;;;;;;56.75;7.25;;;;;;;;;;5028326;28;20056;-57
2023/10/30 07:56:14;;;;;;;43.45;7.10;;;;;;;;;;5025814;28;20077;-58
2023/10/30 07:58:41;;;;;;;22.70;5.35;;;;;;;;;;5026656;28;20069;-55
2023/10/30 08:01:09;;;;;;;28.58;5.78;;;;;;;;;;5013678;28;20046;-59
2023/10/30 08:03:36;;;;;;;36.85;6.38;;;;;;;;;;5022490;28;20046;-56
2023/10/30 08:06:03;;;;;;;54.50;7.20;;;;;;;;;;5025636;28;20136;-56
2023/10/30 08:08:29;;;;;;;37.55;5.22;;;;;;;;;;5022498;28;20458;-59
2023/10/30 08:10:56;;;;;;;34.28;5.68;;;;;;;;;;5024036;28;20053;-58
2023/10/30 08:13:23;;;;;;;31.73;5.35;;;;;;;;;;5024757;28;20100;-58
2023/10/30 08:15:49;;;;;;;27.15;5.47;;;;;;;;;;5021853;28;20172;-57
2023/10/30 08:18:16;;;;;;;44.35;6.40;;;;;;;;;;5018732;28;20048;-57
2023/10/30 08:20:43;;;;;;;75.82;8.15;;;;;;;;;;5024314;28;20397;-59
2023/10/30 08:23:09;;;;;;;27.50;4.75;;;;;;;;;;5036847;28;20045;-57
2023/10/30 08:25:36;;;;;;;46.30;6.00;;;;;;;;;;5025533;28;20056;-57
2023/10/30 08:28:03;;;;;;;20.27;4.68;;;;;;;;;;5026678;28;20052;-58
2023/10/30 08:30:29;;;;;;;40.72;5.85;;;;;;;;;;5031497;28;20080;-60
2023/10/30 08:32:57;;;;;;;40.30;5.20;;;;;;;;;;5031370;28;20053;-59
2023/10/30 08:35:24;;;;;;;30.90;4.93;;;;;;;;;;5015788;28;20111;-59
2023/10/30 08:37:53;;;;;;;26.50;4.28;;;;;;;;;;5026486;28;20041;-57
2023/10/30 08:40:20;;;;;;;33.67;4.55;;;;;;;;;;5040137;28;20558;-59
2023/10/30 08:42:47;;;;;;;92.18;7.68;;;;;;;;;;5024318;28;20038;-61
2023/10/30 08:45:14;;;;;;;33.67;3.88;;;;;;;;;;5025975;28;20050;-61
2023/10/30 08:47:41;;;;;;;83.40;6.28;;;;;;;;;;5022166;28;20045;-60
2023/10/30 08:50:08;;;;;;;43.35;4.18;;;;;;;;;;5024268;28;20049;-60
2023/10/30 08:52:35;;;;;;;41.75;4.32;;;;;;;;;;5028133;28;20041;-60
2023/10/30 08:55:02;;;;;;;41.05;4.60;;;;;;;;;;5024772;28;20045;-61
2023/10/30 08:57:29;;;;;;;41.08;3.78;;;;;;;;;;5021659;28;20116;-60
2023/10/30 08:59:55;;;;;;;63.20;5.50;;;;;;;;;;5024361;28;20117;-60
2023/10/30 09:02:22;;;;;;;46.20;3.97;;;;;;;;;;5025370;28;20495;-60
2023/10/30 09:04:51;;;;;;;34.78;4.25;;;;;;;;;;5018766;28;20501;-60
2023/10/30 09:07:18;;;;;;;38.42;4.05;;;;;;;;;;5024900;28;20407;-60
2023/10/30 09:09:45;;;;;;;38.80;3.85;;;;;;;;;;5028595;28;20479;-59
2023/10/30 09:12:12;;;;;;;41.47;4.07;;;;;;;;;;5022700;28;20051;-60
2023/10/30 09:14:39;;;;;;;69.88;6.68;;;;;;;;;;5022597;28;20050;-61
2023/10/30 09:17:08;;;;;;;28.83;3.47;;;;;;;;;;5023985;28;20483;-60
2023/10/30 09:19:36;;;;;;;23.17;3.38;;;;;;;;;;5040613;28;20139;-60
2023/10/30 09:22:03;;;;;;;25.17;3.08;;;;;;;;;;5022260;28;20829;-60
2023/10/30 09:24:29;;;;;;;34.88;4.00;;;;;;;;;;5024219;28;20042;-59
2023/10/30 09:26:56;;;;;;;24.38;2.95;;;;;;;;;;5039023;28;20133;-60
2023/10/30 09:29:24;;;;;;;18.92;2.75;;;;;;;;;;5022135;28;20609;-59
2023/10/30 09:31:50;;;;;;;28.67;3.80;;;;;;;;;;5027116;28;20386;-60
2023/10/30 09:34:17;;;;;;;21.80;2.72;;;;;;;;;;5022957;28;20530;-60
2023/10/30 09:36:44;;;;;;;27.27;3.22;;;;;;;;;;5024906;28;20044;-60
2023/10/30 09:39:12;;;;;;;13.88;2.58;;;;;;;;;;5022547;28;20053;-60
2023/10/30 09:41:43;;;;;;;43.83;3.92;;;;;;;;;;5019652;28;20046;-60
2023/10/30 09:44:11;;;;;;;25.95;2.85;;;;;;;;;;5020000;28;20046;-60
2023/10/30 09:46:39;;;;;;;19.88;2.40;;;;;;;;;;5023375;28;20090;-61
2023/10/30 09:49:06;;;;;;;15.38;2.47;;;;;;;;;;5024117;28;20069;-60
2023/10/30 09:51:32;;;;;;;27.75;3.65;;;;;;;;;;5023841;28;20041;-60
2023/10/30 09:53:59;;;;;;;31.42;3.92;;;;;;;;;;5030963;28;20077;-60
2023/10/30 09:56:26;;;;;;;25.73;2.97;;;;;;;;;;5024146;28;20073;-60
2023/10/30 09:58:53;;;;;;;25.45;3.42;;;;;;;;;;5023117;28;20079;-61
2023/10/30 10:01:20;;;;;;;28.38;3.85;;;;;;;;;;5036890;28;20046;-60
2023/10/30 10:03:47;;;;;;;32.00;3.58;;;;;;;;;;5022330;28;20117;-60
2023/10/30 10:06:14;;;;;;;21.80;2.85;;;;;;;;;;5027234;28;20181;-61
2023/10/30 10:08:43;;;;;;;221.15;14.70;;;;;;;;;;5020264;28;20049;-60
2023/10/30 10:11:10;;;;;;;32.72;3.95;;;;;;;;;;5025366;28;20048;-59
2023/10/30 10:13:43;;;;;;;25.10;2.75;;;;;;;;;;5023646;28;20514;-60
2023/10/30 10:16:30;;;;;;;30.80;3.63;;;;;;;;;;5022107;28;20080;-61
2023/10/30 10:18:57;;;;;;;30.80;3.72;;;;;;;;;;5021741;28;20122;-60
2023/10/30 10:21:24;;;;;;;31.30;3.22;;;;;;;;;;5023608;28;20056;-60
2023/10/30 10:23:50;;;;;;;38.42;3.70;;;;;;;;;;5021354;28;20625;-60
2023/10/30 10:26:17;;;;;;;21.20;3.08;;;;;;;;;;5022555;28;20502;-61
2023/10/30 10:28:45;;;;;;;35.30;3.25;;;;;;;;;;5024155;28;20149;-60
2023/10/30 10:31:11;;;;;;;21.10;2.92;;;;;;;;;;5026158;28;20041;-59
2023/10/30 10:33:38;;;;;;;30.95;3.53;;;;;;;;;;5021836;28;20049;-60
2023/10/30 10:36:08;;;;;;;42.75;4.22;;;;;;;;;;5021866;28;20033;-60
2023/10/30 10:38:35;;;;;;;45.53;4.43;;;;;;;;;;5026494;28;20041;-60
2023/10/30 10:41:03;;;;;;;34.20;5.15;;;;;;;;;;5022446;28;20041;-60
2023/10/30 10:43:31;;;;;;;24.63;3.00;;;;;;;;;;5034681;28;20514;-59
2023/10/30 10:45:59;;;;;;;17.52;2.50;;;;;;;;;;5020018;28;20041;-60
2023/10/30 10:48:27;;;;;;;29.70;2.95;;;;;;;;;;5005843;28;20052;-60
2023/10/30 10:50:57;;;;;;;34.80;3.50;;;;;;;;;;5038456;28;20053;-60
2023/10/30 10:53:26;;;;;;;21.73;3.08;;;;;;;;;;5038219;28;20119;-61
2023/10/30 10:55:55;;;;;;;17.38;2.33;;;;;;;;;;5023997;28;20082;-60
2023/10/30 10:58:31;;;;;;;29.52;3.10;;;;;;;;;;5022881;28;20052;-60
2023/10/30 11:00:59;;;;;;;27.98;3.38;;;;;;;;;;5037072;28;20152;-64
2023/10/30 11:03:27;;;;;;;28.10;2.95;;;;;;;;;;5026959;28;20049;-64
2023/10/30 11:05:54;;;;;;;19.63;2.85;;;;;;;;;;5025177;28;20045;-63
2023/10/30 11:08:25;;;;;;;30.30;3.30;;;;;;;;;;5023311;28;20045;-71
2023/10/30 11:11:12;;;;;;;24.65;2.70;;;;;;;;;;5044373;28;20100;-61
2023/10/30 11:13:55;;;;;;;21.92;3.30;;;;;;;;;;5026388;28;20104;-61
2023/10/30 11:16:30;;;;;;;36.38;3.53;;;;;;;;;;5019771;28;20057;-61
2023/10/30 11:18:58;;;;;;;30.85;2.95;;;;;;;;;;5022863;28;20158;-61
2023/10/30 11:21:28;;;;;;;20.80;2.63;;;;;;;;;;5044706;28;20069;-61
2023/10/30 11:23:56;;;;;;;42.53;3.70;;;;;;;;;;5028789;28;20443;-63
2023/10/30 11:26:29;;;;;;;20.85;3.15;;;;;;;;;;5030081;28;20061;-63
2023/10/30 11:28:59;;;;;;;50.55;4.30;;;;;;;;;;5026759;28;20041;-61
2023/10/30 11:31:29;;;;;;;26.80;3.03;;;;;;;;;;5029407;28;20046;-66
2023/10/30 11:34:12;;;;;;;20.70;2.40;;;;;;;;;;5026359;28;20045;-62
2023/10/30 11:36:39;;;;;;;25.23;3.05;;;;;;;;;;5028428;28;20041;-64
2023/10/30 11:39:05;;;;;;;34.25;3.63;;;;;;;;;;5035116;28;20184;-61
2023/10/30 11:41:35;;;;;;;21.70;2.92;;;;;;;;;;5020427;28;20041;-63
2023/10/30 11:44:11;;;;;;;13.88;2.00;;;;;;;;;;5034176;28;20042;-61
2023/10/30 11:46:42;;;;;;;22.35;2.50;;;;;;;;;;5037965;28;20135;-61
2023/10/30 11:49:09;;;;;;;16.65;2.38;;;;;;;;;;5024695;28;20462;-60
2023/10/30 11:51:36;;;;;;;20.33;2.42;;;;;;;;;;5020604;28;20128;-62
2023/10/30 11:54:02;;;;;;;12.07;2.08;;;;;;;;;;5021526;28;20037;-62
2023/10/30 11:56:29;;;;;;;20.05;2.78;;;;;;;;;;5036505;28;20560;-61
2023/10/30 11:58:56;;;;;;;32.42;3.05;;;;;;;;;;5020651;28;20053;-61
2023/10/30 12:01:24;;;;;;;26.20;2.97;;;;;;;;;;5021085;28;20508;-61
2023/10/30 12:03:51;;;;;;;13.65;1.92;;;;;;;;;;5020721;28;20112;-61
2023/10/30 12:06:18;;;;;;;33.97;3.63;;;;;;;;;;5038058;28;20041;-61
2023/10/30 12:08:44;;;;;;;64.90;5.70;;;;;;;;;;5024240;28;20060;-60
2023/10/30 12:11:11;;;;;;;34.38;3.10;;;;;;;;;;5015315;28;20052;-61
2023/10/30 12:13:38;;;;;;;15.40;2.00;;;;;;;;;;5014006;28;20052;-61
2023/10/30 12:16:05;;;;;;;20.50;2.55;;;;;;;;;;5012274;28;20052;-60
2023/10/30 12:18:34;;;;;;;28.02;3.38;;;;;;;;;;5016299;28;20050;-63
2023/10/30 12:21:01;;;;;;;26.67;2.97;;;;;;;;;;5036608;28;20048;-60
2023/10/30 12:23:29;;;;;;;33.42;2.90;;;;;;;;;;5019429;28;20495;-61
2023/10/30 12:26:03;;;;;;;30.70;3.25;;;;;;;;;;5021030;28;20046;-60
2023/10/30 12:28:38;;;;;;;25.08;2.95;;;;;;;;;;5024924;28;20410;-59
2023/10/30 12:31:18;;;;;;;22.80;3.25;;;;;;;;;;5027743;28;20482;-60
2023/10/30 12:33:44;;;;;;;19.17;2.80;;;;;;;;;;5027169;28;20403;-60
2023/10/30 12:36:11;;;;;;;34.17;3.65;;;;;;;;;;5041175;28;20511;-60
2023/10/30 12:38:38;;;;;;;47.63;4.07;;;;;;;;;;5023396;28;20502;-62
2023/10/30 12:41:06;;;;;;;22.90;2.58;;;;;;;;;;5023160;28;20413;-60
2023/10/30 12:43:33;;;;;;;19.95;2.20;;;;;;;;;;5023403;28;20050;-61
2023/10/30 12:46:00;;;;;;;16.45;2.08;;;;;;;;;;5025484;28;20442;-62
2023/10/30 12:48:27;;;;;;;18.42;2.17;;;;;;;;;;5040161;28;20422;-60
2023/10/30 12:50:53;;;;;;;37.53;3.03;;;;;;;;;;5024711;28;20119;-61
2023/10/30 12:53:20;;;;;;;18.90;2.30;;;;;;;;;;5039598;28;20104;-60
2023/10/30 12:55:47;;;;;;;21.35;2.72;;;;;;;;;;5025923;28;20083;-62
2023/10/30 12:58:13;;;;;;;15.65;2.47;;;;;;;;;;5037810;28;20042;-62
2023/10/30 13:00:40;;;;;;;32.42;3.58;;;;;;;;;;5022948;28;20045;-61
2023/10/30 13:03:07;;;;;;;40.35;4.07;;;;;;;;;;5007943;28;20462;-62
2023/10/30 13:05:34;;;;;;;21.95;2.88;;;;;;;;;;5004346;28;20136;-65
2023/10/30 13:08:01;;;;;;;15.63;2.30;;;;;;;;;;5047989;28;20045;-62
2023/10/30 13:10:27;;;;;;;23.38;2.88;;;;;;;;;;5015989;28;20068;-63
2023/10/30 13:12:54;;;;;;;27.10;2.72;;;;;;;;;;5027599;28;20116;-61
2023/10/30 13:15:21;;;;;;;25.27;3.17;;;;;;;;;;5023615;28;20036;-61
2023/10/30 13:17:48;;;;;;;53.47;4.30;;;;;;;;;;5024448;28;20049;-65
2023/10/30 13:20:14;;;;;;;20.55;2.33;;;;;;;;;;5025908;28;20050;-61
2023/10/30 13:22:41;;;;;;;28.73;2.97;;;;;;;;;;5024279;28;20041;-60
2023/10/30 13:25:08;;;;;;;23.45;2.53;;;;;;;;;;5025464;28;20042;-62
2023/10/30 13:27:35;;;;;;;27.40;3.00;;;;;;;;;;5043568;28;20439;-60
2023/10/30 13:30:04;;;;;;;24.23;2.85;;;;;;;;;;5038898;28;20045;-63
2023/10/30 13:32:32;;;;;;;21.77;2.53;;;;;;;;;;5025441;28;20442;-61
2023/10/30 13:35:00;;;;;;;34.03;3.53;;;;;;;;;;5014936;28;20045;-62
2023/10/30 13:37:26;;;;;;;30.42;3.15;;;;;;;;;;5016405;28;20418;-62
2023/10/30 13:39:53;;;;;;;33.03;3.13;;;;;;;;;;5023410;28;20096;-65
2023/10/30 13:42:20;;;;;;;28.40;2.88;;;;;;;;;;5024659;28;20050;-61
2023/10/30 13:44:47;;;;;;;68.68;5.18;;;;;;;;;;5022627;28;20045;-65
2023/10/30 13:47:14;;;;;;;19.30;2.70;;;;;;;;;;5021465;28;20042;-67
2023/10/30 13:49:41;;;;;;;30.42;3.03;;;;;;;;;;5023681;28;20050;-60
2023/10/30 13:52:07;;;;;;;11.93;2.17;;;;;;;;;;5025508;28;20125;-62
2023/10/30 13:54:36;;;;;;;28.92;3.17;;;;;;;;;;5021688;28;20057;-64
2023/10/30 13:57:02;;;;;;;44.63;3.67;;;;;;;;;;5040996;28;20129;-61
2023/10/30 13:59:29;;;;;;;44.67;4.50;;;;;;;;;;5022678;28;20046;-62
2023/10/30 14:01:56;;;;;;;37.63;4.10;;;;;;;;;;5023825;28;20062;-61
2023/10/30 14:04:22;;;;;;;27.70;3.05;;;;;;;;;;5026080;28;20091;-60
2023/10/30 14:06:49;;;;;;;53.03;5.75;;;;;;;;;;5027074;28;20041;-61
2023/10/30 14:09:16;;;;;;;34.08;3.95;;;;;;;;;;5027363;28;20045;-63
2023/10/30 14:11:43;;;;;;;69.75;8.77;;;;;;;;;;5022604;28;20499;-62
2023/10/30 14:14:09;;;;;;;32.72;3.97;;;;;;;;;;5021750;28;20052;-60
2023/10/30 14:16:36;;;;;;;37.03;4.32;;;;;;;;;;5037060;28;20639;-60
2023/10/30 14:19:03;;;;;;;33.08;3.90;;;;;;;;;;5024560;28;20095;-62
2023/10/30 14:21:30;;;;;;;26.92;3.67;;;;;;;;;;5023270;28;20439;-59
2023/10/30 14:23:56;;;;;;;37.53;3.88;;;;;;;;;;5022908;28;20071;-60
2023/10/30 14:26:23;;;;;;;21.25;3.05;;;;;;;;;;5039301;28;20045;-60
2023/10/30 14:28:50;;;;;;;23.02;3.30;;;;;;;;;;5041493;28;20406;-60
2023/10/30 14:31:16;;;;;;;25.67;3.63;;;;;;;;;;5024194;28;20046;-59
2023/10/30 14:33:43;;;;;;;39.75;5.00;;;;;;;;;;5023836;28;20053;-60
2023/10/30 14:36:10;;;;;;;43.55;6.25;;;;;;;;;;5038343;28;20037;-62